sensor_id;sensor_type;location;lat;lon;timestamp;temperature;humidity
45044;DHT22;30784;48.490;9.688;2023-04-25T00:00:30;9.90;50.90
45044;DHT22;30784;48.490;9.688;2023-04-25T00:02:55;9.90;50.70
45044;DHT22;30784;48.490;9.688;2023-04-25T00:05:25;9.90;50.90
45044;DHT22;30784;48.490;9.688;2023-04-25T00:07:51;10.00;51.00
45044;DHT22;30784;48.490;9.688;2023-04-25T00:10:17;9.90;50.70
45044;DHT22;30784;48.490;9.688;2023-04-25T00:12:43;10.00;50.90
45044;DHT22;30784;48.490;9.688;2023-04-25T00:15:09;10.00;50.90
45044;DHT22;30784;48.490;9.688;2023-04-25T00:17:34;10.00;50.90
45044;DHT22;30784;48.490;9.688;2023-04-25T00:20:01;10.00;50.90
45044;DHT22;30784;48.490;9.688;2023-04-25T00:22:30;10.00;51.10
45044;DHT22;30784;48.490;9.688;2023-04-25T00:24:56;10.00;51.10
45044;DHT22;30784;48.490;9.688;2023-04-25T00:27:25;10.00;51.10
45044;DHT22;30784;48.490;9.688;2023-04-25T00:29:51;10.00;51.00
45044;DHT22;30784;48.490;9.688;2023-04-25T00:32:16;10.10;51.00
45044;DHT22;30784;48.490;9.688;2023-04-25T00:34:42;10.00;50.90
45044;DHT22;30784;48.490;9.688;2023-04-25T00:37:07;10.10;51.60
45044;DHT22;30784;48.490;9.688;2023-04-25T00:39:33;10.10;51.10
45044;DHT22;30784;48.490;9.688;2023-04-25T00:41:59;10.00;51.00
45044;DHT22;30784;48.490;9.688;2023-04-25T00:44:24;10.00;51.10
45044;DHT22;30784;48.490;9.688;2023-04-25T00:46:52;10.00;51.20
45044;DHT22;30784;48.490;9.688;2023-04-25T00:49:19;10.00;51.20
45044;DHT22;30784;48.490;9.688;2023-04-25T00:51:44;9.90;51.20
45044;DHT22;30784;48.490;9.688;2023-04-25T00:54:11;9.90;51.30
45044;DHT22;30784;48.490;9.688;2023-04-25T00:56:37;9.90;51.30
45044;DHT22;30784;48.490;9.688;2023-04-25T00:59:03;9.90;51.40
45044;DHT22;30784;48.490;9.688;2023-04-25T01:01:29;9.90;51.30
45044;DHT22;30784;48.490;9.688;2023-04-25T01:03:58;9.90;51.70
45044;DHT22;30784;48.490;9.688;2023-04-25T01:06:24;9.90;51.60
45044;DHT22;30784;48.490;9.688;2023-04-25T01:08:51;9.90;51.70
45044;DHT22;30784;48.490;9.688;2023-04-25T01:11:16;9.90;51.80
45044;DHT22;30784;48.490;9.688;2023-04-25T01:13:43;9.90;51.60
45044;DHT22;30784;48.490;9.688;2023-04-25T01:16:08;9.90;51.70
45044;DHT22;30784;48.490;9.688;2023-04-25T01:18:34;9.90;51.60
45044;DHT22;30784;48.490;9.688;2023-04-25T01:21:12;9.90;51.60
45044;DHT22;30784;48.490;9.688;2023-04-25T01:23:39;9.90;51.50
45044;DHT22;30784;48.490;9.688;2023-04-25T01:26:06;9.90;51.60
45044;DHT22;30784;48.490;9.688;2023-04-25T01:28:33;9.90;51.70
45044;DHT22;30784;48.490;9.688;2023-04-25T01:30:59;9.90;51.70
45044;DHT22;30784;48.490;9.688;2023-04-25T01:33:25;10.00;51.80
45044;DHT22;30784;48.490;9.688;2023-04-25T01:35:51;9.90;51.80
45044;DHT22;30784;48.490;9.688;2023-04-25T01:38:16;9.90;51.90
45044;DHT22;30784;48.490;9.688;2023-04-25T01:40:44;9.90;51.80
45044;DHT22;30784;48.490;9.688;2023-04-25T01:43:10;9.90;51.90
45044;DHT22;30784;48.490;9.688;2023-04-25T01:45:41;9.90;51.90
45044;DHT22;30784;48.490;9.688;2023-04-25T01:48:12;9.90;51.80
45044;DHT22;30784;48.490;9.688;2023-04-25T01:50:39;10.00;52.00
45044;DHT22;30784;48.490;9.688;2023-04-25T01:53:05;10.00;52.20
45044;DHT22;30784;48.490;9.688;2023-04-25T01:55:31;10.00;52.00
45044;DHT22;30784;48.490;9.688;2023-04-25T01:57:56;10.00;52.10
45044;DHT22;30784;48.490;9.688;2023-04-25T02:00:23;10.00;52.20
45044;DHT22;30784;48.490;9.688;2023-04-25T02:02:48;10.00;52.00
45044;DHT22;30784;48.490;9.688;2023-04-25T02:05:16;10.00;52.10
45044;DHT22;30784;48.490;9.688;2023-04-25T02:07:41;10.00;52.10
45044;DHT22;30784;48.490;9.688;2023-04-25T02:10:07;10.10;52.20
45044;DHT22;30784;48.490;9.688;2023-04-25T02:12:35;10.10;52.20
45044;DHT22;30784;48.490;9.688;2023-04-25T02:15:00;10.10;52.20
45044;DHT22;30784;48.490;9.688;2023-04-25T02:17:26;10.10;52.10
45044;DHT22;30784;48.490;9.688;2023-04-25T02:19:51;10.10;52.10
45044;DHT22;30784;48.490;9.688;2023-04-25T02:22:17;10.10;52.30
45044;DHT22;30784;48.490;9.688;2023-04-25T02:24:42;10.10;52.20
45044;DHT22;30784;48.490;9.688;2023-04-25T02:27:08;10.10;52.30
45044;DHT22;30784;48.490;9.688;2023-04-25T02:29:34;10.10;52.30
45044;DHT22;30784;48.490;9.688;2023-04-25T02:31:59;10.10;52.30
45044;DHT22;30784;48.490;9.688;2023-04-25T02:34:25;10.20;52.30
45044;DHT22;30784;48.490;9.688;2023-04-25T02:36:50;10.20;52.40
45044;DHT22;30784;48.490;9.688;2023-04-25T02:39:16;10.20;52.30
45044;DHT22;30784;48.490;9.688;2023-04-25T02:41:42;10.20;52.40
45044;DHT22;30784;48.490;9.688;2023-04-25T02:44:08;10.20;52.40
45044;DHT22;30784;48.490;9.688;2023-04-25T02:46:33;10.10;52.40
45044;DHT22;30784;48.490;9.688;2023-04-25T02:48:59;10.10;52.50
45044;DHT22;30784;48.490;9.688;2023-04-25T02:51:24;10.10;52.40
45044;DHT22;30784;48.490;9.688;2023-04-25T02:53:50;10.10;52.40
45044;DHT22;30784;48.490;9.688;2023-04-25T02:56:15;10.00;52.40
45044;DHT22;30784;48.490;9.688;2023-04-25T02:58:41;10.00;52.50
45044;DHT22;30784;48.490;9.688;2023-04-25T03:01:06;10.00;52.50
45044;DHT22;30784;48.490;9.688;2023-04-25T03:03:32;10.00;52.60
45044;DHT22;30784;48.490;9.688;2023-04-25T03:05:57;10.00;52.70
45044;DHT22;30784;48.490;9.688;2023-04-25T03:08:23;9.90;52.60
45044;DHT22;30784;48.490;9.688;2023-04-25T03:10:50;9.90;52.80
45044;DHT22;30784;48.490;9.688;2023-04-25T03:13:17;9.90;52.80
45044;DHT22;30784;48.490;9.688;2023-04-25T03:15:44;9.90;52.90
45044;DHT22;30784;48.490;9.688;2023-04-25T03:18:09;9.90;52.90
45044;DHT22;30784;48.490;9.688;2023-04-25T03:20:35;9.80;53.00
45044;DHT22;30784;48.490;9.688;2023-04-25T03:23:00;9.80;53.10
45044;DHT22;30784;48.490;9.688;2023-04-25T03:25:26;9.80;53.20
45044;DHT22;30784;48.490;9.688;2023-04-25T03:27:51;9.80;53.30
45044;DHT22;30784;48.490;9.688;2023-04-25T03:30:17;9.80;53.20
45044;DHT22;30784;48.490;9.688;2023-04-25T03:32:42;9.80;53.30
45044;DHT22;30784;48.490;9.688;2023-04-25T03:35:08;9.70;53.30
45044;DHT22;30784;48.490;9.688;2023-04-25T03:37:34;9.70;53.20
45044;DHT22;30784;48.490;9.688;2023-04-25T03:39:59;9.80;53.30
45044;DHT22;30784;48.490;9.688;2023-04-25T03:42:25;9.80;53.40
45044;DHT22;30784;48.490;9.688;2023-04-25T03:44:51;9.80;53.50
45044;DHT22;30784;48.490;9.688;2023-04-25T03:47:17;9.70;53.40
45044;DHT22;30784;48.490;9.688;2023-04-25T03:49:42;9.70;53.40
45044;DHT22;30784;48.490;9.688;2023-04-25T03:52:08;9.70;53.40
45044;DHT22;30784;48.490;9.688;2023-04-25T03:54:33;9.70;53.40
45044;DHT22;30784;48.490;9.688;2023-04-25T03:56:59;9.70;53.50
45044;DHT22;30784;48.490;9.688;2023-04-25T03:59:25;9.80;53.50
45044;DHT22;30784;48.490;9.688;2023-04-25T04:01:51;9.70;53.50
45044;DHT22;30784;48.490;9.688;2023-04-25T04:04:17;9.70;53.40
45044;DHT22;30784;48.490;9.688;2023-04-25T04:06:43;9.70;53.40
45044;DHT22;30784;48.490;9.688;2023-04-25T04:09:08;9.70;53.40
45044;DHT22;30784;48.490;9.688;2023-04-25T04:11:36;9.70;53.50
45044;DHT22;30784;48.490;9.688;2023-04-25T04:14:04;9.70;53.50
45044;DHT22;30784;48.490;9.688;2023-04-25T04:16:30;9.70;53.40
45044;DHT22;30784;48.490;9.688;2023-04-25T04:18:56;9.70;53.40
45044;DHT22;30784;48.490;9.688;2023-04-25T04:21:22;9.70;53.50
45044;DHT22;30784;48.490;9.688;2023-04-25T04:23:47;9.70;53.50
45044;DHT22;30784;48.490;9.688;2023-04-25T04:26:13;9.80;53.60
45044;DHT22;30784;48.490;9.688;2023-04-25T04:28:42;9.70;53.70
45044;DHT22;30784;48.490;9.688;2023-04-25T04:31:09;9.70;53.60
45044;DHT22;30784;48.490;9.688;2023-04-25T04:33:35;9.70;53.70
45044;DHT22;30784;48.490;9.688;2023-04-25T04:36:02;9.70;53.80
45044;DHT22;30784;48.490;9.688;2023-04-25T04:38:28;9.70;53.90
45044;DHT22;30784;48.490;9.688;2023-04-25T04:40:54;9.70;54.10
45044;DHT22;30784;48.490;9.688;2023-04-25T04:43:20;9.60;53.90
45044;DHT22;30784;48.490;9.688;2023-04-25T04:45:45;9.60;54.10
45044;DHT22;30784;48.490;9.688;2023-04-25T04:48:11;9.60;54.10
45044;DHT22;30784;48.490;9.688;2023-04-25T04:50:39;9.60;54.10
45044;DHT22;30784;48.490;9.688;2023-04-25T04:53:05;9.60;54.30
45044;DHT22;30784;48.490;9.688;2023-04-25T04:55:31;9.50;54.40
45044;DHT22;30784;48.490;9.688;2023-04-25T04:57:56;9.50;54.60
45044;DHT22;30784;48.490;9.688;2023-04-25T05:00:22;9.50;54.60
45044;DHT22;30784;48.490;9.688;2023-04-25T05:02:48;9.50;54.70
45044;DHT22;30784;48.490;9.688;2023-04-25T05:05:13;9.50;54.90
45044;DHT22;30784;48.490;9.688;2023-04-25T05:07:39;9.50;54.70
45044;DHT22;30784;48.490;9.688;2023-04-25T05:10:06;9.60;54.90
45044;DHT22;30784;48.490;9.688;2023-04-25T05:12:32;9.60;54.90
45044;DHT22;30784;48.490;9.688;2023-04-25T05:14:57;9.60;54.90
45044;DHT22;30784;48.490;9.688;2023-04-25T05:17:23;9.60;54.90
45044;DHT22;30784;48.490;9.688;2023-04-25T05:19:48;9.60;54.70
45044;DHT22;30784;48.490;9.688;2023-04-25T05:22:14;9.60;54.90
45044;DHT22;30784;48.490;9.688;2023-04-25T05:24:39;9.60;54.90
45044;DHT22;30784;48.490;9.688;2023-04-25T05:27:05;9.70;55.10
45044;DHT22;30784;48.490;9.688;2023-04-25T05:29:31;9.70;55.10
45044;DHT22;30784;48.490;9.688;2023-04-25T05:31:56;9.70;55.20
45044;DHT22;30784;48.490;9.688;2023-04-25T05:34:22;9.70;55.20
45044;DHT22;30784;48.490;9.688;2023-04-25T05:36:47;9.80;55.20
45044;DHT22;30784;48.490;9.688;2023-04-25T05:39:15;9.80;55.20
45044;DHT22;30784;48.490;9.688;2023-04-25T05:41:41;9.90;55.20
45044;DHT22;30784;48.490;9.688;2023-04-25T05:44:06;9.90;55.20
45044;DHT22;30784;48.490;9.688;2023-04-25T05:46:32;9.90;55.10
45044;DHT22;30784;48.490;9.688;2023-04-25T05:48:58;10.00;55.10
45044;DHT22;30784;48.490;9.688;2023-04-25T05:51:23;10.00;55.10
45044;DHT22;30784;48.490;9.688;2023-04-25T05:53:49;10.00;55.10
45044;DHT22;30784;48.490;9.688;2023-04-25T05:56:14;10.00;55.10
45044;DHT22;30784;48.490;9.688;2023-04-25T05:58:40;10.00;55.20
45044;DHT22;30784;48.490;9.688;2023-04-25T06:01:06;10.10;55.20
45044;DHT22;30784;48.490;9.688;2023-04-25T06:03:31;10.10;55.20
45044;DHT22;30784;48.490;9.688;2023-04-25T06:05:57;10.20;55.30
45044;DHT22;30784;48.490;9.688;2023-04-25T06:08:22;10.20;55.20
45044;DHT22;30784;48.490;9.688;2023-04-25T06:10:51;10.20;55.10
45044;DHT22;30784;48.490;9.688;2023-04-25T06:13:16;10.30;55.30
45044;DHT22;30784;48.490;9.688;2023-04-25T06:15:42;10.30;55.80
45044;DHT22;30784;48.490;9.688;2023-04-25T06:18:08;10.30;55.30
45044;DHT22;30784;48.490;9.688;2023-04-25T06:20:33;10.30;55.20
45044;DHT22;30784;48.490;9.688;2023-04-25T06:22:59;10.40;55.40
45044;DHT22;30784;48.490;9.688;2023-04-25T06:25:25;10.40;55.30
45044;DHT22;30784;48.490;9.688;2023-04-25T06:27:50;10.50;55.20
45044;DHT22;30784;48.490;9.688;2023-04-25T06:30:16;10.50;55.20
45044;DHT22;30784;48.490;9.688;2023-04-25T06:32:43;10.50;55.20
45044;DHT22;30784;48.490;9.688;2023-04-25T06:35:09;10.60;55.20
45044;DHT22;30784;48.490;9.688;2023-04-25T06:37:35;10.60;55.20
45044;DHT22;30784;48.490;9.688;2023-04-25T06:40:01;10.70;55.70
45044;DHT22;30784;48.490;9.688;2023-04-25T06:42:27;10.80;55.20
45044;DHT22;30784;48.490;9.688;2023-04-25T06:44:53;10.80;55.30
45044;DHT22;30784;48.490;9.688;2023-04-25T06:47:18;10.90;55.20
45044;DHT22;30784;48.490;9.688;2023-04-25T06:49:44;11.00;54.90
45044;DHT22;30784;48.490;9.688;2023-04-25T06:52:09;11.00;54.70
45044;DHT22;30784;48.490;9.688;2023-04-25T06:54:36;11.10;54.60
45044;DHT22;30784;48.490;9.688;2023-04-25T06:57:01;11.20;54.40
45044;DHT22;30784;48.490;9.688;2023-04-25T06:59:27;11.20;54.40
45044;DHT22;30784;48.490;9.688;2023-04-25T07:01:52;11.30;54.20
45044;DHT22;30784;48.490;9.688;2023-04-25T07:04:18;11.40;54.30
45044;DHT22;30784;48.490;9.688;2023-04-25T07:06:44;11.30;54.60
45044;DHT22;30784;48.490;9.688;2023-04-25T07:09:10;11.40;54.10
45044;DHT22;30784;48.490;9.688;2023-04-25T07:11:36;11.40;53.90
45044;DHT22;30784;48.490;9.688;2023-04-25T07:14:02;11.50;53.70
45044;DHT22;30784;48.490;9.688;2023-04-25T07:16:27;11.60;54.00
45044;DHT22;30784;48.490;9.688;2023-04-25T07:18:53;11.60;53.30
45044;DHT22;30784;48.490;9.688;2023-04-25T07:21:18;11.60;53.20
45044;DHT22;30784;48.490;9.688;2023-04-25T07:23:44;11.60;53.20
45044;DHT22;30784;48.490;9.688;2023-04-25T07:26:10;11.60;53.30
45044;DHT22;30784;48.490;9.688;2023-04-25T07:28:35;11.60;53.10
45044;DHT22;30784;48.490;9.688;2023-04-25T07:31:01;11.60;52.90
45044;DHT22;30784;48.490;9.688;2023-04-25T07:33:27;11.60;52.70
45044;DHT22;30784;48.490;9.688;2023-04-25T07:35:53;11.60;52.50
45044;DHT22;30784;48.490;9.688;2023-04-25T07:38:18;11.60;52.30
45044;DHT22;30784;48.490;9.688;2023-04-25T07:40:44;11.60;52.40
45044;DHT22;30784;48.490;9.688;2023-04-25T07:43:09;11.60;52.40
45044;DHT22;30784;48.490;9.688;2023-04-25T07:45:37;11.60;52.50
45044;DHT22;30784;48.490;9.688;2023-04-25T07:48:03;11.60;52.60
45044;DHT22;30784;48.490;9.688;2023-04-25T07:50:28;11.60;52.60
45044;DHT22;30784;48.490;9.688;2023-04-25T07:52:54;11.50;52.60
45044;DHT22;30784;48.490;9.688;2023-04-25T07:55:19;11.50;52.80
45044;DHT22;30784;48.490;9.688;2023-04-25T07:57:45;11.60;53.00
45044;DHT22;30784;48.490;9.688;2023-04-25T08:00:11;11.60;52.90
45044;DHT22;30784;48.490;9.688;2023-04-25T08:02:37;11.60;52.90
45044;DHT22;30784;48.490;9.688;2023-04-25T08:05:03;11.60;52.60
45044;DHT22;30784;48.490;9.688;2023-04-25T08:07:28;11.60;52.60
45044;DHT22;30784;48.490;9.688;2023-04-25T08:09:54;11.60;52.60
45044;DHT22;30784;48.490;9.688;2023-04-25T08:12:20;11.60;52.90
45044;DHT22;30784;48.490;9.688;2023-04-25T08:14:46;11.70;52.80
45044;DHT22;30784;48.490;9.688;2023-04-25T08:17:11;11.70;52.60
45044;DHT22;30784;48.490;9.688;2023-04-25T08:19:37;11.70;52.50
45044;DHT22;30784;48.490;9.688;2023-04-25T08:22:02;11.70;52.40
45044;DHT22;30784;48.490;9.688;2023-04-25T08:24:28;11.80;52.60
45044;DHT22;30784;48.490;9.688;2023-04-25T08:26:54;11.90;52.50
45044;DHT22;30784;48.490;9.688;2023-04-25T08:29:19;11.90;52.40
45044;DHT22;30784;48.490;9.688;2023-04-25T08:31:45;12.00;52.50
45044;DHT22;30784;48.490;9.688;2023-04-25T08:34:10;11.90;52.40
45044;DHT22;30784;48.490;9.688;2023-04-25T08:36:36;11.90;52.60
45044;DHT22;30784;48.490;9.688;2023-04-25T08:39:02;12.00;52.80
45044;DHT22;30784;48.490;9.688;2023-04-25T08:41:28;12.00;52.80
45044;DHT22;30784;48.490;9.688;2023-04-25T08:43:53;12.00;52.90
45044;DHT22;30784;48.490;9.688;2023-04-25T08:46:21;12.10;52.70
45044;DHT22;30784;48.490;9.688;2023-04-25T08:48:48;12.10;52.60
45044;DHT22;30784;48.490;9.688;2023-04-25T08:51:21;12.10;52.70
45044;DHT22;30784;48.490;9.688;2023-04-25T08:53:50;12.10;52.70
45044;DHT22;30784;48.490;9.688;2023-04-25T08:56:16;12.10;52.40
45044;DHT22;30784;48.490;9.688;2023-04-25T08:58:50;12.10;52.50
45044;DHT22;30784;48.490;9.688;2023-04-25T09:01:16;12.00;52.20
45044;DHT22;30784;48.490;9.688;2023-04-25T09:03:44;12.00;52.20
45044;DHT22;30784;48.490;9.688;2023-04-25T09:06:11;12.00;52.10
45044;DHT22;30784;48.490;9.688;2023-04-25T09:08:37;11.90;52.80
45044;DHT22;30784;48.490;9.688;2023-04-25T09:11:03;11.80;52.10
45044;DHT22;30784;48.490;9.688;2023-04-25T09:13:31;11.90;52.50
45044;DHT22;30784;48.490;9.688;2023-04-25T09:15:57;11.80;52.50
45044;DHT22;30784;48.490;9.688;2023-04-25T09:18:24;11.70;52.30
45044;DHT22;30784;48.490;9.688;2023-04-25T09:20:52;11.70;52.30
45044;DHT22;30784;48.490;9.688;2023-04-25T09:23:19;11.60;52.40
45044;DHT22;30784;48.490;9.688;2023-04-25T09:25:48;11.60;52.40
45044;DHT22;30784;48.490;9.688;2023-04-25T09:28:14;11.60;52.60
45044;DHT22;30784;48.490;9.688;2023-04-25T09:30:40;11.50;52.80
45044;DHT22;30784;48.490;9.688;2023-04-25T09:33:06;11.40;52.80
45044;DHT22;30784;48.490;9.688;2023-04-25T09:35:39;11.40;53.00
45044;DHT22;30784;48.490;9.688;2023-04-25T09:38:13;11.40;53.60
45044;DHT22;30784;48.490;9.688;2023-04-25T09:40:44;11.40;53.20
45044;DHT22;30784;48.490;9.688;2023-04-25T09:43:18;11.30;53.10
45044;DHT22;30784;48.490;9.688;2023-04-25T09:45:44;11.30;53.30
45044;DHT22;30784;48.490;9.688;2023-04-25T09:48:12;11.30;53.50
45044;DHT22;30784;48.490;9.688;2023-04-25T09:50:38;11.30;53.30
45044;DHT22;30784;48.490;9.688;2023-04-25T09:53:05;11.30;53.30
45044;DHT22;30784;48.490;9.688;2023-04-25T09:55:32;11.30;53.40
45044;DHT22;30784;48.490;9.688;2023-04-25T09:58:05;11.40;53.30
45044;DHT22;30784;48.490;9.688;2023-04-25T10:00:32;11.40;53.40
45044;DHT22;30784;48.490;9.688;2023-04-25T10:03:01;11.40;53.60
45044;DHT22;30784;48.490;9.688;2023-04-25T10:05:30;11.40;53.70
45044;DHT22;30784;48.490;9.688;2023-04-25T10:07:58;11.40;53.60
45044;DHT22;30784;48.490;9.688;2023-04-25T10:10:24;11.40;53.50
45044;DHT22;30784;48.490;9.688;2023-04-25T10:12:53;11.40;53.70
45044;DHT22;30784;48.490;9.688;2023-04-25T10:15:19;11.40;54.00
45044;DHT22;30784;48.490;9.688;2023-04-25T10:17:45;11.40;53.80
45044;DHT22;30784;48.490;9.688;2023-04-25T10:20:11;11.50;53.90
45044;DHT22;30784;48.490;9.688;2023-04-25T10:22:42;11.50;53.80
45044;DHT22;30784;48.490;9.688;2023-04-25T10:25:08;11.50;53.40
45044;DHT22;30784;48.490;9.688;2023-04-25T10:27:35;11.50;53.50
45044;DHT22;30784;48.490;9.688;2023-04-25T10:30:07;11.40;53.40
45044;DHT22;30784;48.490;9.688;2023-04-25T10:32:35;11.40;53.30
45044;DHT22;30784;48.490;9.688;2023-04-25T10:35:23;11.40;53.20
45044;DHT22;30784;48.490;9.688;2023-04-25T10:38:09;11.30;53.00
45044;DHT22;30784;48.490;9.688;2023-04-25T10:40:35;11.30;53.10
45044;DHT22;30784;48.490;9.688;2023-04-25T10:46:01;11.20;53.10
45044;DHT22;30784;48.490;9.688;2023-04-25T10:48:30;11.20;53.20
45044;DHT22;30784;48.490;9.688;2023-04-25T10:51:09;11.20;53.50
45044;DHT22;30784;48.490;9.688;2023-04-25T10:53:35;11.10;53.40
45044;DHT22;30784;48.490;9.688;2023-04-25T10:56:00;11.10;53.70
45044;DHT22;30784;48.490;9.688;2023-04-25T10:58:34;11.10;53.40
45044;DHT22;30784;48.490;9.688;2023-04-25T11:01:01;11.10;53.60
45044;DHT22;30784;48.490;9.688;2023-04-25T11:03:26;11.10;53.90
45044;DHT22;30784;48.490;9.688;2023-04-25T11:05:52;11.00;53.80
45044;DHT22;30784;48.490;9.688;2023-04-25T11:08:30;11.00;54.00
45044;DHT22;30784;48.490;9.688;2023-04-25T11:10:59;11.00;53.90
45044;DHT22;30784;48.490;9.688;2023-04-25T11:13:29;11.00;54.00
45044;DHT22;30784;48.490;9.688;2023-04-25T11:15:55;11.00;54.00
45044;DHT22;30784;48.490;9.688;2023-04-25T11:18:20;11.00;53.90
45044;DHT22;30784;48.490;9.688;2023-04-25T11:20:48;11.00;54.10
45044;DHT22;30784;48.490;9.688;2023-04-25T11:23:13;11.00;54.20
45044;DHT22;30784;48.490;9.688;2023-04-25T11:25:40;11.00;54.10
45044;DHT22;30784;48.490;9.688;2023-04-25T11:28:06;11.00;53.90
45044;DHT22;30784;48.490;9.688;2023-04-25T11:30:31;11.00;54.00
45044;DHT22;30784;48.490;9.688;2023-04-25T11:32:57;10.90;53.90
45044;DHT22;30784;48.490;9.688;2023-04-25T11:35:23;10.90;54.00
45044;DHT22;30784;48.490;9.688;2023-04-25T11:37:50;10.90;54.20
45044;DHT22;30784;48.490;9.688;2023-04-25T11:40:16;10.80;54.30
45044;DHT22;30784;48.490;9.688;2023-04-25T11:42:46;10.80;54.40
45044;DHT22;30784;48.490;9.688;2023-04-25T11:45:13;10.80;54.40
45044;DHT22;30784;48.490;9.688;2023-04-25T11:47:39;10.80;54.40
45044;DHT22;30784;48.490;9.688;2023-04-25T11:50:06;10.80;54.50
45044;DHT22;30784;48.490;9.688;2023-04-25T11:52:44;10.80;54.70
45044;DHT22;30784;48.490;9.688;2023-04-25T11:55:13;10.70;54.40
45044;DHT22;30784;48.490;9.688;2023-04-25T11:57:40;10.70;54.60
45044;DHT22;30784;48.490;9.688;2023-04-25T12:02:37;10.70;54.60
45044;DHT22;30784;48.490;9.688;2023-04-25T12:05:05;10.70;54.80
45044;DHT22;30784;48.490;9.688;2023-04-25T12:07:31;10.60;55.00
45044;DHT22;30784;48.490;9.688;2023-04-25T12:09:57;10.60;55.00
45044;DHT22;30784;48.490;9.688;2023-04-25T12:12:27;10.60;55.10
45044;DHT22;30784;48.490;9.688;2023-04-25T12:14:52;10.60;55.10
45044;DHT22;30784;48.490;9.688;2023-04-25T12:17:20;10.60;55.10
45044;DHT22;30784;48.490;9.688;2023-04-25T12:19:47;10.60;55.00
45044;DHT22;30784;48.490;9.688;2023-04-25T12:22:21;10.50;54.80
45044;DHT22;30784;48.490;9.688;2023-04-25T12:24:47;10.50;54.80
45044;DHT22;30784;48.490;9.688;2023-04-25T12:27:15;10.50;55.10
45044;DHT22;30784;48.490;9.688;2023-04-25T12:29:51;10.40;55.30
45044;DHT22;30784;48.490;9.688;2023-04-25T12:32:16;10.50;55.20
45044;DHT22;30784;48.490;9.688;2023-04-25T12:34:43;10.40;55.60
45044;DHT22;30784;48.490;9.688;2023-04-25T12:37:09;10.40;55.50
45044;DHT22;30784;48.490;9.688;2023-04-25T12:39:37;10.50;55.60
45044;DHT22;30784;48.490;9.688;2023-04-25T12:42:02;10.50;55.90
45044;DHT22;30784;48.490;9.688;2023-04-25T12:44:28;10.50;55.90
45044;DHT22;30784;48.490;9.688;2023-04-25T12:46:54;10.60;56.30
45044;DHT22;30784;48.490;9.688;2023-04-25T12:49:20;10.60;56.30
45044;DHT22;30784;48.490;9.688;2023-04-25T12:51:46;10.70;56.20
45044;DHT22;30784;48.490;9.688;2023-04-25T12:54:12;10.70;56.20
45044;DHT22;30784;48.490;9.688;2023-04-25T12:56:37;10.80;56.20
45044;DHT22;30784;48.490;9.688;2023-04-25T12:59:03;10.90;56.20
45044;DHT22;30784;48.490;9.688;2023-04-25T13:01:29;11.00;56.40
45044;DHT22;30784;48.490;9.688;2023-04-25T13:03:55;11.10;56.50
45044;DHT22;30784;48.490;9.688;2023-04-25T13:06:21;11.20;56.40
45044;DHT22;30784;48.490;9.688;2023-04-25T13:08:49;11.30;56.30
45044;DHT22;30784;48.490;9.688;2023-04-25T13:11:15;11.40;56.20
45044;DHT22;30784;48.490;9.688;2023-04-25T13:13:41;11.50;55.30
45044;DHT22;30784;48.490;9.688;2023-04-25T13:16:07;11.60;55.50
45044;DHT22;30784;48.490;9.688;2023-04-25T13:18:34;11.70;54.90
45044;DHT22;30784;48.490;9.688;2023-04-25T13:21:00;11.70;54.30
45044;DHT22;30784;48.490;9.688;2023-04-25T13:23:27;11.80;54.40
45044;DHT22;30784;48.490;9.688;2023-04-25T13:25:54;11.90;54.00
45044;DHT22;30784;48.490;9.688;2023-04-25T13:28:21;11.90;54.00
45044;DHT22;30784;48.490;9.688;2023-04-25T13:30:46;11.80;54.00
45044;DHT22;30784;48.490;9.688;2023-04-25T13:33:13;11.90;53.90
45044;DHT22;30784;48.490;9.688;2023-04-25T13:35:40;11.80;53.70
45044;DHT22;30784;48.490;9.688;2023-04-25T13:38:06;11.80;53.80
45044;DHT22;30784;48.490;9.688;2023-04-25T13:40:31;11.80;54.00
45044;DHT22;30784;48.490;9.688;2023-04-25T13:42:57;11.80;54.30
45044;DHT22;30784;48.490;9.688;2023-04-25T13:45:23;11.80;54.00
45044;DHT22;30784;48.490;9.688;2023-04-25T13:47:48;11.80;53.90
45044;DHT22;30784;48.490;9.688;2023-04-25T13:50:14;11.80;53.70
45044;DHT22;30784;48.490;9.688;2023-04-25T13:52:41;11.80;53.80
45044;DHT22;30784;48.490;9.688;2023-04-25T13:55:07;11.80;53.50
45044;DHT22;30784;48.490;9.688;2023-04-25T13:57:34;11.90;53.30
45044;DHT22;30784;48.490;9.688;2023-04-25T14:00:00;11.90;53.30
45044;DHT22;30784;48.490;9.688;2023-04-25T14:02:30;11.90;53.30
45044;DHT22;30784;48.490;9.688;2023-04-25T14:04:55;12.00;53.40
45044;DHT22;30784;48.490;9.688;2023-04-25T14:07:21;12.00;53.20
45044;DHT22;30784;48.490;9.688;2023-04-25T14:09:47;12.00;52.70
45044;DHT22;30784;48.490;9.688;2023-04-25T14:12:12;12.00;52.80
45044;DHT22;30784;48.490;9.688;2023-04-25T14:14:38;12.00;52.80
45044;DHT22;30784;48.490;9.688;2023-04-25T14:17:03;12.00;52.90
45044;DHT22;30784;48.490;9.688;2023-04-25T14:19:29;12.10;53.20
45044;DHT22;30784;48.490;9.688;2023-04-25T14:21:55;12.20;52.90
45044;DHT22;30784;48.490;9.688;2023-04-25T14:24:21;12.20;52.40
45044;DHT22;30784;48.490;9.688;2023-04-25T14:26:47;12.30;52.30
45044;DHT22;30784;48.490;9.688;2023-04-25T14:29:12;12.40;52.20
45044;DHT22;30784;48.490;9.688;2023-04-25T14:31:39;12.50;51.90
45044;DHT22;30784;48.490;9.688;2023-04-25T14:34:05;12.60;51.90
45044;DHT22;30784;48.490;9.688;2023-04-25T14:36:32;12.70;51.80
45044;DHT22;30784;48.490;9.688;2023-04-25T14:38:58;12.80;51.70
45044;DHT22;30784;48.490;9.688;2023-04-25T14:41:24;12.90;51.40
45044;DHT22;30784;48.490;9.688;2023-04-25T14:43:50;13.00;51.40
45044;DHT22;30784;48.490;9.688;2023-04-25T14:46:16;13.10;51.00
45044;DHT22;30784;48.490;9.688;2023-04-25T14:48:42;13.20;51.10
45044;DHT22;30784;48.490;9.688;2023-04-25T14:51:07;13.40;50.60
45044;DHT22;30784;48.490;9.688;2023-04-25T14:53:33;13.50;50.40
45044;DHT22;30784;48.490;9.688;2023-04-25T14:55:59;13.50;50.20
45044;DHT22;30784;48.490;9.688;2023-04-25T14:58:24;13.70;49.80
45044;DHT22;30784;48.490;9.688;2023-04-25T15:00:50;13.80;50.00
45044;DHT22;30784;48.490;9.688;2023-04-25T15:03:17;13.80;49.50
45044;DHT22;30784;48.490;9.688;2023-04-25T15:05:43;14.00;49.60
45044;DHT22;30784;48.490;9.688;2023-04-25T15:08:09;14.10;49.20
45044;DHT22;30784;48.490;9.688;2023-04-25T15:10:35;14.20;48.40
45044;DHT22;30784;48.490;9.688;2023-04-25T15:13:01;14.30;48.40
45044;DHT22;30784;48.490;9.688;2023-04-25T15:15:27;14.40;48.30
45044;DHT22;30784;48.490;9.688;2023-04-25T15:17:53;14.40;47.70
45044;DHT22;30784;48.490;9.688;2023-04-25T15:20:20;14.40;47.10
45044;DHT22;30784;48.490;9.688;2023-04-25T15:22:46;14.40;47.10
45044;DHT22;30784;48.490;9.688;2023-04-25T15:25:15;14.40;46.90
45044;DHT22;30784;48.490;9.688;2023-04-25T15:27:43;14.40;46.90
45044;DHT22;30784;48.490;9.688;2023-04-25T15:30:14;14.40;47.10
45044;DHT22;30784;48.490;9.688;2023-04-25T15:32:46;14.40;46.90
45044;DHT22;30784;48.490;9.688;2023-04-25T15:35:12;14.30;46.90